This is the latest recevied weather packets stored in our database for station/object PE1BMM-13. If no packets are shown the sender has not sent any weather packets the latest 10 day(s).
| Time | Temp. | Humidity | Pressure | Rain* | Wind** | Luminosity | Snow |
|---|---|---|---|---|---|---|---|
| 1777707630 | 15° C | 85% | 1017.8 hPa | 0 mm | - | - | - |
| 1777707329 | 14.44° C | 84% | 1018 hPa | 0 mm | - | - | - |
| 1777707029 | 14.44° C | 84% | 1018 hPa | 0 mm | - | - | - |
| 1777706731 | 14.44° C | 83% | 1018 hPa | 0 mm | - | - | - |
| 1777706429 | 14.44° C | 83% | 1018 hPa | 0 mm | - | - | - |
| 1777706126 | 14.44° C | 82% | 1018 hPa | 0 mm | - | - | - |
| 1777705828 | 14.44° C | 82% | 1018.1 hPa | 0 mm | - | - | - |
| 1777705524 | 14.44° C | 81% | 1018 hPa | 0 mm | - | - | - |
| 1777705274 | 14.44° C | 81% | 1018.1 hPa | 0 mm | - | - | - |
| 1777704978 | 13.89° C | 82% | 1018.1 hPa | 0 mm | - | - | - |
| 1777704623 | 13.89° C | 81% | 1018.1 hPa | 0 mm | - | - | - |
| 1777704324 | 13.89° C | 81% | 1018 hPa | 0 mm | - | - | - |
| 1777704020 | 13.89° C | 80% | 1018 hPa | 0 mm | - | - | - |
| 1777703720 | 13.33° C | 79% | 1018.1 hPa | 0 mm | - | - | - |
| 1777703420 | 13.33° C | 78% | 1018.1 hPa | 0 mm | - | - | - |
| 1777703120 | 13.33° C | 78% | 1018.1 hPa | 0 mm | - | - | - |
| 1777702819 | 13.33° C | 78% | 1018.1 hPa | 0 mm | - | - | - |
| 1777702519 | 13.33° C | 78% | 1018 hPa | 0 mm | - | - | - |
| 1777702220 | 12.78° C | 78% | 1018.1 hPa | 0 mm | - | - | - |
| 1777701920 | 12.78° C | 78% | 1017.9 hPa | 0 mm | - | - | - |
| 1777701620 | 12.78° C | 77% | 1018.1 hPa | 0 mm | - | - | - |
| 1777701382 | 13.33° C | 73% | 1017.8 hPa | 0 mm | - | - | - |
| 1777701015 | 12.78° C | 74% | 1017.8 hPa | 0 mm | - | - | - |
| 1777700716 | 12.78° C | 74% | 1017.7 hPa | 0 mm | - | - | - |
| 1777700415 | 12.22° C | 74% | 1017.7 hPa | 0 mm | - | - | - |
* Rain latest hour (hover to see other rain measurements)
** Current wind speed in m/s (hover to see current wind gust speed)